Terminal Aerodrome Forecast
Issued by NWS

Home | Current Version | Previous Version | Text Only | Print | Product List | Glossary On
Versions: 1 2 3 4 5 6 7 8 9 10 11 12 13 14 15 16 17 18 19 20
000
FTUS42 TJSJ 020010 RRA
TAFJSJ
TAF
TJSJ 020010Z 0200/0224 07009KT P6SM VCTS SCT022CB BKN040 BKN070
      TEMPO 0200/0203 VRB12G22KT 3SM TSRA BKN020CB OVC050
     FM020300 09008KT P6SM VCSH SCT022 BKN050 BKN100
     FM021200 10004KT P6SM FEW025 SCT050 SCT120
     FM021430 07011KT P6SM FEW030 SCT070=

USA.gov is the U.S. government's official web portal to all federal, state and local government web resources and services.